ROMMA est une association bénévole à but non lucratif. Votre soutien est indispensable : ADHERER à ROMMA ou FAIRE un DON

Ambérieu-en-Bugey - (01, Ain)

Bugey (255 m)   Longitude: 05° 21' 7"E   Latitude: 45° 58' 24"N Station partenaire n°84
 

Détail journalier du     <<     >>

Température Precipitation Humidité Pression Vent Dir Rafale Dir. rafale
Heure (°C) (mm) (%) (hPa) (km/h) (km/h)
01:00 10.108610125NNE18NNE
02:00 9.708710125NNE16NNE
03:00 9.508710114NNE15NNE
04:00 9.308710123NNE11NNE
05:00 9.208710124NNE15NE
06:00 9.108710122NE10NNE
07:00 8.908710123NNE15N
08:00 8.708710124NNE16N
09:00 9.208710125NNE16NE
10:00 9.808410125NNE18ENE
11:00 10.807910127NNE21NNE
12:00 12.8070101210NNE24N
13:00 13.7066101210NNE26NE
14:00 14.1064101210NNE29N
15:00 14.3062101211NNE32NE
16:00 15.3059101214NNE37N
17:00 15.1056101213NNE34N
18:00 15.1055101314NNE34ENE
19:00 13.9058101312NNE32NNE
20:00 12.5056101412NNE29N
21:00 11.206010159NNE27N
22:00 10.106510157NNE23NE
23:00 8.807010155NE19NNE
minuit 7.607310162NNE13N

Graphique du 11-04-2019

 

Serveur OMMA